N135R -KLIT
Flight info
| Callsign | N135R |
|---|---|
| Flight time | N/A |
| Altitude | VFR/020 |
| Route | |
| Aircraft | PA28/L-DOV/C |
Departure
| Time | N/A |
|---|---|
| Airport | - |
Arrival
| Time | 2026-05-09 00:06 |
|---|---|
| Airport | Bill & Hillary Clinton National Airport/Adams Field (KLIT) |
| Time | Latitude | Longitude | Altitude | Speed | Heading |
|---|---|---|---|---|---|
| 2026-05-08 23:58 | 34.83436 | -92.43975 | 2082 ft | 129 kts | 204° |
| 2026-05-08 23:58 | 34.82594 | -92.44354 | 2116 ft | 132 kts | 196° |
| 2026-05-08 23:59 | 34.81700 | -92.44638 | 2051 ft | 134 kts | 193° |
| 2026-05-08 23:59 | 34.80809 | -92.44872 | 2007 ft | 132 kts | 191° |
| 2026-05-08 23:59 | 34.79911 | -92.45051 | 1972 ft | 131 kts | 186° |
| 2026-05-08 23:59 | 34.79015 | -92.44967 | 1953 ft | 129 kts | 158° |
| 2026-05-09 00:00 | 34.78423 | -92.44137 | 1932 ft | 137 kts | 115° |
| 2026-05-09 00:00 | 34.78212 | -92.43010 | 1985 ft | 136 kts | 106° |
| 2026-05-09 00:00 | 34.78030 | -92.41852 | 1908 ft | 141 kts | 104° |
| 2026-05-09 00:00 | 34.77892 | -92.40660 | 1849 ft | 145 kts | 102° |
| 2026-05-09 00:01 | 34.77799 | -92.39414 | 1757 ft | 147 kts | 97° |
| 2026-05-09 00:01 | 34.77780 | -92.38179 | 1719 ft | 146 kts | 96° |
| 2026-05-09 00:01 | 34.77682 | -92.36958 | 1641 ft | 144 kts | 102° |
| 2026-05-09 00:01 | 34.77575 | -92.35757 | 1596 ft | 142 kts | 101° |
| 2026-05-09 00:02 | 34.77438 | -92.34544 | 1445 ft | 145 kts | 103° |
| 2026-05-09 00:02 | 34.77278 | -92.33365 | 1461 ft | 141 kts | 104° |
| 2026-05-09 00:02 | 34.77094 | -92.32196 | 1463 ft | 139 kts | 105° |
| 2026-05-09 00:02 | 34.76876 | -92.31045 | 1414 ft | 140 kts | 111° |
| 2026-05-09 00:03 | 34.76603 | -92.29917 | 1353 ft | 140 kts | 111° |
| 2026-05-09 00:03 | 34.76353 | -92.28783 | 1231 ft | 134 kts | 106° |
| 2026-05-09 00:03 | 34.76204 | -92.27808 | 1260 ft | 105 kts | 105° |
| 2026-05-09 00:03 | 34.76117 | -92.27016 | 1233 ft | 83 kts | 104° |
| 2026-05-09 00:04 | 34.76076 | -92.26351 | 1116 ft | 77 kts | 101° |
| 2026-05-09 00:04 | 34.76042 | -92.25729 | 1084 ft | 72 kts | 103° |
| 2026-05-09 00:04 | 34.76006 | -92.25094 | 1002 ft | 74 kts | 100° |
| 2026-05-09 00:04 | 34.75966 | -92.24477 | 873 ft | 73 kts | 102° |
| 2026-05-09 00:05 | 34.75770 | -92.23929 | 687 ft | 69 kts | 158° |
| 2026-05-09 00:05 | 34.75327 | -92.23769 | 621 ft | 62 kts | 176° |
| 2026-05-09 00:05 | 34.74923 | -92.23743 | 550 ft | 56 kts | 185° |
| 2026-05-09 00:05 | 34.74511 | -92.23777 | 414 ft | 61 kts | 187° |
| 2026-05-09 00:06 | 34.74090 | -92.23796 | 346 ft | 58 kts | 180° |
| 2026-05-09 00:06 | 34.73698 | -92.23803 | 263 ft | 49 kts | 180° |
| 2026-05-09 00:06 | 34.73435 | -92.23830 | 261 ft | 19 kts | 187° |
| 2026-05-09 00:06 | 34.73397 | -92.23899 | 261 ft | 10 kts | 272° |
| 2026-05-09 00:07 | 34.73397 | -92.23906 | 261 ft | 0 kts | 272° |
| 2026-05-09 00:08 | 34.73398 | -92.23926 | 262 ft | 6 kts | 277° |
| 2026-05-09 00:08 | 34.73451 | -92.23961 | 262 ft | 13 kts | 1° |
| 2026-05-09 00:08 | 34.73564 | -92.23960 | 262 ft | 19 kts | 360° |
| 2026-05-09 00:09 | 34.73709 | -92.23959 | 261 ft | 23 kts | 1° |
| 2026-05-09 00:09 | 34.73880 | -92.23949 | 262 ft | 23 kts | 2° |
| 2026-05-09 00:09 | 34.73963 | -92.23923 | 262 ft | 0 kts | 62° |
| 2026-05-09 00:10 | 34.73964 | -92.23920 | 262 ft | 3 kts | 62° |
| 2026-05-09 00:10 | 34.73969 | -92.23841 | 262 ft | 13 kts | 105° |
| 2026-05-09 00:10 | 34.73835 | -92.23818 | 261 ft | 44 kts | 183° |
| 2026-05-09 00:11 | 34.73392 | -92.23818 | 416 ft | 71 kts | 185° |
| 2026-05-09 00:11 | 34.72864 | -92.23864 | 782 ft | 79 kts | 187° |
| 2026-05-09 00:11 | 34.72289 | -92.23926 | 1198 ft | 84 kts | 184° |
| 2026-05-09 00:11 | 34.71837 | -92.24291 | 1384 ft | 90 kts | 246° |
| 2026-05-09 00:12 | 34.71823 | -92.25127 | 1376 ft | 103 kts | 265° |
| 2026-05-09 00:12 | 34.72090 | -92.25908 | 1439 ft | 107 kts | 317° |
| 2026-05-09 00:12 | 34.72816 | -92.26133 | 1446 ft | 115 kts | 359° |
| 2026-05-09 00:12 | 34.73601 | -92.26123 | 1476 ft | 108 kts | 1° |
| 2026-05-09 00:13 | 34.74283 | -92.26051 | 1514 ft | 92 kts | 7° |
| 2026-05-09 00:13 | 34.74884 | -92.25966 | 1493 ft | 83 kts | 4° |
| 2026-05-09 00:13 | 34.75448 | -92.25859 | 1407 ft | 81 kts | 26° |
| 2026-05-09 00:13 | 34.75783 | -92.25362 | 1281 ft | 74 kts | 87° |
| 2026-05-09 00:14 | 34.75849 | -92.24766 | 1189 ft | 70 kts | 94° |
| 2026-05-09 00:14 | 34.75845 | -92.24153 | 960 ft | 75 kts | 115° |
| 2026-05-09 00:14 | 34.75494 | -92.23774 | 788 ft | 66 kts | 167° |
| 2026-05-09 00:14 | 34.75063 | -92.23743 | 690 ft | 60 kts | 189° |
| 2026-05-09 00:15 | 34.74656 | -92.23770 | 545 ft | 60 kts | 185° |
| 2026-05-09 00:15 | 34.74225 | -92.23791 | 405 ft | 60 kts | 185° |
| 2026-05-09 00:15 | 34.73818 | -92.23813 | 277 ft | 57 kts | 178° |
| 2026-05-09 00:15 | 34.73490 | -92.23828 | 261 ft | 40 kts | 184° |
| 2026-05-09 00:16 | 34.73036 | -92.23832 | 325 ft | 88 kts | 181° |
| 2026-05-09 00:16 | 34.72377 | -92.23844 | 668 ft | 98 kts | 184° |
| 2026-05-09 00:16 | 34.71747 | -92.23912 | 1236 ft | 86 kts | 186° |
| 2026-05-09 00:16 | 34.71288 | -92.24231 | 1426 ft | 83 kts | 242° |
| 2026-05-09 00:17 | 34.71295 | -92.25014 | 1411 ft | 95 kts | 270° |
| 2026-05-09 00:17 | 34.71450 | -92.25763 | 1446 ft | 93 kts | 305° |
| 2026-05-09 00:17 | 34.72079 | -92.26014 | 1400 ft | 102 kts | 0° |
| 2026-05-09 00:17 | 34.72811 | -92.25969 | 1362 ft | 107 kts | 2° |
| 2026-05-09 00:18 | 34.73551 | -92.25914 | 1329 ft | 104 kts | 3° |
| 2026-05-09 00:18 | 34.74221 | -92.25841 | 1393 ft | 86 kts | 4° |
| 2026-05-09 00:18 | 34.74795 | -92.25759 | 1299 ft | 83 kts | 9° |
| 2026-05-09 00:18 | 34.75362 | -92.25656 | 1210 ft | 81 kts | 23° |
| 2026-05-09 00:19 | 34.75634 | -92.25118 | 1036 ft | 78 kts | 93° |
| 2026-05-09 00:19 | 34.75665 | -92.24495 | 970 ft | 71 kts | 95° |
| 2026-05-09 00:19 | 34.75589 | -92.23890 | 730 ft | 73 kts | 129° |
| 2026-05-09 00:19 | 34.75183 | -92.23721 | 561 ft | 61 kts | 190° |
| 2026-05-09 00:20 | 34.74760 | -92.23751 | 467 ft | 60 kts | 188° |
| 2026-05-09 00:20 | 34.74337 | -92.23800 | 366 ft | 63 kts | 182° |
| 2026-05-09 00:20 | 34.73903 | -92.23804 | 293 ft | 62 kts | 185° |
| 2026-05-09 00:20 | 34.73522 | -92.23816 | 261 ft | 45 kts | 180° |
| 2026-05-09 00:21 | 34.73252 | -92.23834 | 264 ft | 48 kts | 182° |
| 2026-05-09 00:21 | 34.72730 | -92.23842 | 432 ft | 87 kts | 182° |
| 2026-05-09 00:21 | 34.72129 | -92.23859 | 861 ft | 90 kts | 184° |
| 2026-05-09 00:21 | 34.71503 | -92.23944 | 1239 ft | 93 kts | 187° |